PWSweather.com
Personal Weather Stations
Station Observations
SHAHALMS1
Eftra, Falkenberg, HA

EftraFalkenberg, HA

Lat: 56.85, Lon: 12.65

Elevation: 140

Station Type:

http://hem.passagen.se/risarp101

High Low Average
Temperature 42.8°F6.0°C 29.5°F-1.4°C 35.8°F2.1°C
Dew Point 29.8°F-1.2°C 18.2°F-7.7°C 22.5°F-5.3°C
Winds 12.8 mph 20.6 kmh Calm Calm 5.0 mph W8.0 kmh W
Wind Gusts 28.3 mph45.5 kmh -- 11.0 mph17.7 kmh
Humidity 78% 47% 59%
Pressure 30.30 in1026.1 mb 29.89 in1012.2 mb -
Precipitation 0.00 in0.0 mm - -
Hour Temp Dew Point Humidity Winds Wind Gusts Pressure Precip Precip Rate Daily Precip Total
12:00 AM 34.3°F1.3°C 23.8°F-4.6°C 65% 2.2 mph NW3.5 kmh NW 10.0 mph16.1 kmh 29.89 in1012.2 mb 0.00 in0.0 mm 0.00 in0.0 mm 0.00 in0.0 mm
12:15 AM 34.2°F1.2°C 23.6°F-4.7°C 65% 4.5 mph NW7.2 kmh NW 9.7 mph15.6 kmh 29.92 in1013.2 mb 0.00 in0.0 mm 0.00 in0.0 mm 0.00 in0.0 mm
12:30 AM 34.0°F1.1°C 23.1°F-4.9°C 64% 3.9 mph NW6.3 kmh NW 9.3 mph15.0 kmh 29.92 in1013.2 mb 0.00 in0.0 mm 0.00 in0.0 mm 0.00 in0.0 mm
12:45 AM 33.8°F1.0°C 22.9°F-5.1°C 64% 3.8 mph NW6.1 kmh NW 9.3 mph15.0 kmh 29.92 in1013.2 mb 0.00 in0.0 mm 0.00 in0.0 mm 0.00 in0.0 mm
01:00 AM 33.6°F0.9°C 22.4°F-5.3°C 63% 4.2 mph NW6.8 kmh NW 8.9 mph14.3 kmh 29.95 in1014.2 mb 0.00 in0.0 mm 0.00 in0.0 mm 0.00 in0.0 mm
01:15 AM 33.1°F0.6°C 21.8°F-5.7°C 63% 2.7 mph WNW4.3 kmh WNW 8.9 mph14.3 kmh 29.95 in1014.2 mb 0.00 in0.0 mm 0.00 in0.0 mm 0.00 in0.0 mm
01:30 AM 32.9°F0.5°C 21.3°F-5.9°C 62% 2.1 mph NW3.4 kmh NW 6.8 mph10.9 kmh 29.95 in1014.2 mb 0.00 in0.0 mm 0.00 in0.0 mm 0.00 in0.0 mm
01:45 AM 33.3°F0.7°C 21.3°F-5.9°C 61% 6.5 mph NW10.5 kmh NW 11.8 mph19.0 kmh 29.95 in1014.2 mb 0.00 in0.0 mm 0.00 in0.0 mm 0.00 in0.0 mm
02:00 AM 33.4°F0.8°C 20.6°F-6.3°C 59% 7.1 mph NNW11.4 kmh NNW 12.2 mph19.6 kmh 29.95 in1014.2 mb 0.00 in0.0 mm 0.00 in0.0 mm 0.00 in0.0 mm
02:15 AM 32.9°F0.5°C 20.1°F-6.6°C 59% 2.9 mph NW4.7 kmh NW 7.9 mph12.7 kmh 29.92 in1013.2 mb 0.00 in0.0 mm 0.00 in0.0 mm 0.00 in0.0 mm
02:30 AM 32.0°F0.0°C 19.7°F-6.8°C 60% 1.5 mph NW2.4 kmh NW 6.4 mph10.3 kmh 29.95 in1014.2 mb 0.00 in0.0 mm 0.00 in0.0 mm 0.00 in0.0 mm
02:45 AM 31.6°F-0.2°C 19.7°F-6.8°C 61% 2.6 mph NNW4.2 kmh NNW 6.8 mph10.9 kmh 29.95 in1014.2 mb 0.00 in0.0 mm 0.00 in0.0 mm 0.00 in0.0 mm
03:00 AM 31.3°F-0.4°C 19.4°F-7.0°C 61% 0.6 mph WNW1.0 kmh WNW 5.0 mph8.0 kmh 29.95 in1014.2 mb 0.00 in0.0 mm 0.00 in0.0 mm 0.00 in0.0 mm
03:15 AM 31.3°F-0.4°C 19.4°F-7.0°C 61% 4.1 mph NW6.6 kmh NW 9.3 mph15.0 kmh 30.01 in1016.3 mb 0.00 in0.0 mm 0.00 in0.0 mm 0.00 in0.0 mm
03:30 AM 31.3°F-0.4°C 19.4°F-7.0°C 61% 2.9 mph NW4.7 kmh NW 9.7 mph15.6 kmh 30.01 in1016.3 mb 0.00 in0.0 mm 0.00 in0.0 mm 0.00 in0.0 mm
03:45 AM 31.3°F-0.4°C 19.4°F-7.0°C 61% 4.3 mph NW6.9 kmh NW 9.7 mph15.6 kmh 30.01 in1016.3 mb 0.00 in0.0 mm 0.00 in0.0 mm 0.00 in0.0 mm
04:00 AM 31.3°F-0.4°C 19.4°F-7.0°C 61% 4.4 mph NW7.1 kmh NW 8.6 mph13.8 kmh 30.01 in1016.3 mb 0.00 in0.0 mm 0.00 in0.0 mm 0.00 in0.0 mm
04:15 AM 30.7°F-0.7°C 18.9°F-7.3°C 61% 1.1 mph WNW1.8 kmh WNW 7.9 mph12.7 kmh 29.98 in1015.2 mb 0.00 in0.0 mm 0.00 in0.0 mm 0.00 in0.0 mm
04:30 AM 30.4°F-0.9°C 18.5°F-7.5°C 61% 1.2 mph NW1.9 kmh NW 6.8 mph10.9 kmh 30.01 in1016.3 mb 0.00 in0.0 mm 0.00 in0.0 mm 0.00 in0.0 mm
04:45 AM 30.0°F-1.1°C 18.2°F-7.7°C 61% 2.4 mph W3.9 kmh W 5.7 mph9.2 kmh 30.01 in1016.3 mb 0.00 in0.0 mm 0.00 in0.0 mm 0.00 in0.0 mm
05:00 AM 30.2°F-1.0°C 18.7°F-7.4°C 62% 2.7 mph NW4.3 kmh NW 6.4 mph10.3 kmh 30.04 in1017.3 mb 0.00 in0.0 mm 0.00 in0.0 mm 0.00 in0.0 mm
05:15 AM 29.8°F-1.2°C 18.4°F-7.6°C 62% 2.4 mph W3.9 kmh W 5.7 mph9.2 kmh 30.04 in1017.3 mb 0.00 in0.0 mm 0.00 in0.0 mm 0.00 in0.0 mm
05:30 AM 30.2°F-1.0°C 18.7°F-7.4°C 62% 2.8 mph NW4.5 kmh NW 7.9 mph12.7 kmh 30.04 in1017.3 mb 0.00 in0.0 mm 0.00 in0.0 mm 0.00 in0.0 mm
05:45 AM 29.8°F-1.2°C 18.4°F-7.6°C 62% 0.3 mph W0.5 kmh W 4.7 mph7.6 kmh 30.07 in1018.3 mb 0.00 in0.0 mm 0.00 in0.0 mm 0.00 in0.0 mm
06:00 AM 29.5°F-1.4°C 18.4°F-7.6°C 63% 1.9 mph WNW3.1 kmh WNW 5.7 mph9.2 kmh 30.07 in1018.3 mb 0.00 in0.0 mm 0.00 in0.0 mm 0.00 in0.0 mm
06:15 AM 29.7°F-1.3°C 18.6°F-7.4°C 63% 1.0 mph NW1.6 kmh NW 6.8 mph10.9 kmh 30.09 in1019.0 mb 0.00 in0.0 mm 0.00 in0.0 mm 0.00 in0.0 mm
06:30 AM 30.0°F-1.1°C 18.9°F-7.3°C 63% 1.0 mph NW1.6 kmh NW 4.7 mph7.6 kmh 30.07 in1018.3 mb 0.00 in0.0 mm 0.00 in0.0 mm 0.00 in0.0 mm
06:45 AM 30.4°F-0.9°C 19.3°F-7.1°C 63% 1.6 mph W2.6 kmh W 5.0 mph8.0 kmh 30.07 in1018.3 mb 0.00 in0.0 mm 0.00 in0.0 mm 0.00 in0.0 mm
07:00 AM 31.3°F-0.4°C 20.1°F-6.6°C 63% 3.0 mph WNW4.8 kmh WNW 6.4 mph10.3 kmh 30.07 in1018.3 mb 0.00 in0.0 mm 0.00 in0.0 mm 0.00 in0.0 mm
07:15 AM 31.8°F-0.1°C 20.6°F-6.3°C 63% 0.7 mph NW1.1 kmh NW 5.0 mph8.0 kmh 30.09 in1019.0 mb 0.00 in0.0 mm 0.00 in0.0 mm 0.00 in0.0 mm
07:30 AM 32.0°F0.0°C 20.4°F-6.4°C 62% 4.9 mph NW7.9 kmh NW 10.0 mph16.1 kmh 30.09 in1019.0 mb 0.00 in0.0 mm 0.00 in0.0 mm 0.00 in0.0 mm
07:45 AM 33.3°F0.7°C 21.6°F-5.8°C 62% 2.8 mph WNW4.5 kmh WNW 6.4 mph10.3 kmh 30.09 in1019.0 mb 0.00 in0.0 mm 0.00 in0.0 mm 0.00 in0.0 mm
08:00 AM 34.5°F1.4°C 22.4°F-5.3°C 61% 5.6 mph NNW9.0 kmh NNW 9.3 mph15.0 kmh 30.12 in1020.0 mb 0.00 in0.0 mm 0.00 in0.0 mm 0.00 in0.0 mm
08:15 AM 35.2°F1.8°C 21.9°F-5.6°C 58% 6.8 mph NNW10.9 kmh NNW 12.2 mph19.6 kmh 30.12 in1020.0 mb 0.00 in0.0 mm 0.00 in0.0 mm 0.00 in0.0 mm
08:30 AM 35.6°F2.0°C 21.4°F-5.9°C 56% 7.9 mph NW12.7 kmh NW 12.9 mph20.8 kmh 30.09 in1019.0 mb 0.00 in0.0 mm 0.00 in0.0 mm 0.00 in0.0 mm
08:45 AM 36.0°F2.2°C 21.3°F-5.9°C 55% 8.0 mph NW12.9 kmh NW 14.0 mph22.5 kmh 30.12 in1020.0 mb 0.00 in0.0 mm 0.00 in0.0 mm 0.00 in0.0 mm
09:00 AM 36.5°F2.5°C 21.8°F-5.7°C 55% 7.2 mph NW11.6 kmh NW 12.9 mph20.8 kmh 30.12 in1020.0 mb 0.00 in0.0 mm 0.00 in0.0 mm 0.00 in0.0 mm
09:15 AM 37.2°F2.9°C 22.1°F-5.5°C 54% 6.7 mph N10.8 kmh N 12.5 mph20.1 kmh 30.15 in1021.0 mb 0.00 in0.0 mm 0.00 in0.0 mm 0.00 in0.0 mm
09:30 AM 37.8°F3.2°C 22.6°F-5.2°C 54% 7.7 mph N12.4 kmh N 14.0 mph22.5 kmh 30.15 in1021.0 mb 0.00 in0.0 mm 0.00 in0.0 mm 0.00 in0.0 mm
09:45 AM 38.1°F3.4°C 22.5°F-5.3°C 53% 8.0 mph NNW12.9 kmh NNW 12.9 mph20.8 kmh 30.15 in1021.0 mb 0.00 in0.0 mm 0.00 in0.0 mm 0.00 in0.0 mm
10:00 AM 38.5°F3.6°C 22.4°F-5.3°C 52% 8.1 mph NW13.0 kmh NW 13.6 mph21.9 kmh 30.15 in1021.0 mb 0.00 in0.0 mm 0.00 in0.0 mm 0.00 in0.0 mm
10:15 AM 38.8°F3.8°C 22.7°F-5.2°C 52% 8.7 mph NW14.0 kmh NW 14.7 mph23.7 kmh 30.18 in1022.0 mb 0.00 in0.0 mm 0.00 in0.0 mm 0.00 in0.0 mm
10:30 AM 39.4°F4.1°C 22.7°F-5.2°C 51% 9.7 mph NW15.6 kmh NW 16.8 mph27.0 kmh 30.18 in1022.0 mb 0.00 in0.0 mm 0.00 in0.0 mm 0.00 in0.0 mm
10:45 AM 39.7°F4.3°C 22.6°F-5.2°C 50% 11.9 mph NW19.2 kmh NW 20.0 mph32.2 kmh 30.18 in1022.0 mb 0.00 in0.0 mm 0.00 in0.0 mm 0.00 in0.0 mm
11:00 AM 40.1°F4.5°C 22.4°F-5.3°C 49% 10.6 mph NW17.1 kmh NW 21.1 mph34.0 kmh 30.15 in1021.0 mb 0.00 in0.0 mm 0.00 in0.0 mm 0.00 in0.0 mm
11:15 AM 40.5°F4.7°C 22.8°F-5.1°C 49% 10.1 mph NNW16.3 kmh NNW 20.0 mph32.2 kmh 30.15 in1021.0 mb 0.00 in0.0 mm 0.00 in0.0 mm 0.00 in0.0 mm
11:30 AM 40.8°F4.9°C 23.1°F-4.9°C 49% 10.5 mph NW16.9 kmh NW 20.4 mph32.8 kmh 30.18 in1022.0 mb 0.00 in0.0 mm 0.00 in0.0 mm 0.00 in0.0 mm
11:45 AM 41.4°F5.2°C 23.6°F-4.7°C 49% 11.1 mph NW17.9 kmh NW 20.0 mph32.2 kmh 30.15 in1021.0 mb 0.00 in0.0 mm 0.00 in0.0 mm 0.00 in0.0 mm
12:00 PM 41.5°F5.3°C 22.8°F-5.1°C 47% 12.5 mph NW20.1 kmh NW 23.3 mph37.5 kmh 30.18 in1022.0 mb 0.00 in0.0 mm 0.00 in0.0 mm 0.00 in0.0 mm
12:15 PM 41.9°F5.5°C 23.1°F-4.9°C 47% 10.5 mph NNW16.9 kmh NNW 21.1 mph34.0 kmh 30.18 in1022.0 mb 0.00 in0.0 mm 0.00 in0.0 mm 0.00 in0.0 mm
12:30 PM 42.3°F5.7°C 23.9°F-4.5°C 48% 8.6 mph NW13.8 kmh NW 17.5 mph28.2 kmh 30.18 in1022.0 mb 0.00 in0.0 mm 0.00 in0.0 mm 0.00 in0.0 mm
12:45 PM 42.4°F5.8°C 23.6°F-4.7°C 47% 9.5 mph NW15.3 kmh NW 17.5 mph28.2 kmh 30.21 in1023.0 mb 0.00 in0.0 mm 0.00 in0.0 mm 0.00 in0.0 mm
01:00 PM 42.8°F6.0°C 24.9°F-3.9°C 49% 6.6 mph WNW10.6 kmh WNW 13.6 mph21.9 kmh 30.18 in1022.0 mb 0.00 in0.0 mm 0.00 in0.0 mm 0.00 in0.0 mm
01:15 PM 42.8°F6.0°C 24.9°F-3.9°C 49% 7.4 mph NW11.9 kmh NW 13.6 mph21.9 kmh 30.18 in1022.0 mb 0.00 in0.0 mm 0.00 in0.0 mm 0.00 in0.0 mm
01:30 PM 42.8°F6.0°C 24.9°F-3.9°C 49% 7.7 mph WNW12.4 kmh WNW 17.5 mph28.2 kmh 30.21 in1023.0 mb 0.00 in0.0 mm 0.00 in0.0 mm 0.00 in0.0 mm
01:45 PM 42.6°F5.9°C 24.3°F-4.3°C 48% 9.2 mph WNW14.8 kmh WNW 22.5 mph36.2 kmh 30.21 in1023.0 mb 0.00 in0.0 mm 0.00 in0.0 mm 0.00 in0.0 mm
02:00 PM 42.6°F5.9°C 24.3°F-4.3°C 48% 8.9 mph NW14.3 kmh NW 19.3 mph31.1 kmh 30.21 in1023.0 mb 0.00 in0.0 mm 0.00 in0.0 mm 0.00 in0.0 mm
02:15 PM 42.8°F6.0°C 24.9°F-3.9°C 49% 8.5 mph WNW13.7 kmh WNW 19.0 mph30.6 kmh 30.24 in1024.0 mb 0.00 in0.0 mm 0.00 in0.0 mm 0.00 in0.0 mm
02:30 PM 42.8°F6.0°C 24.9°F-3.9°C 49% 9.9 mph NW15.9 kmh NW 20.8 mph33.5 kmh 30.24 in1024.0 mb 0.00 in0.0 mm 0.00 in0.0 mm 0.00 in0.0 mm
02:45 PM 42.6°F5.9°C 23.8°F-4.6°C 47% 10.9 mph NW17.5 kmh NW 24.7 mph39.8 kmh 30.24 in1024.0 mb 0.00 in0.0 mm 0.00 in0.0 mm 0.00 in0.0 mm
03:00 PM 42.6°F5.9°C 24.3°F-4.3°C 48% 7.9 mph NW12.7 kmh NW 19.3 mph31.1 kmh 30.24 in1024.0 mb 0.00 in0.0 mm 0.00 in0.0 mm 0.00 in0.0 mm
03:15 PM 42.4°F5.8°C 24.6°F-4.1°C 49% 8.8 mph NW14.2 kmh NW 26.1 mph42.0 kmh 30.24 in1024.0 mb 0.00 in0.0 mm 0.00 in0.0 mm 0.00 in0.0 mm
03:30 PM 42.3°F5.7°C 24.9°F-3.9°C 50% 7.9 mph NW12.7 kmh NW 16.8 mph27.0 kmh 30.24 in1024.0 mb 0.00 in0.0 mm 0.00 in0.0 mm 0.00 in0.0 mm
03:45 PM 41.9°F5.5°C 23.1°F-4.9°C 47% 12.2 mph NW19.6 kmh NW 28.3 mph45.5 kmh 30.21 in1023.0 mb 0.00 in0.0 mm 0.00 in0.0 mm 0.00 in0.0 mm
04:00 PM 41.7°F5.4°C 24.4°F-4.2°C 50% 9.2 mph NW14.8 kmh NW 26.8 mph43.1 kmh 30.21 in1023.0 mb 0.00 in0.0 mm 0.00 in0.0 mm 0.00 in0.0 mm
04:15 PM 41.4°F5.2°C 23.6°F-4.7°C 49% 7.4 mph NW11.9 kmh NW 15.4 mph24.8 kmh 30.24 in1024.0 mb 0.00 in0.0 mm 0.00 in0.0 mm 0.00 in0.0 mm
04:30 PM 41.0°F5.0°C 23.8°F-4.6°C 50% 11.8 mph NW19.0 kmh NW 25.4 mph40.9 kmh 30.24 in1024.0 mb 0.00 in0.0 mm 0.00 in0.0 mm 0.00 in0.0 mm
04:45 PM 40.8°F4.9°C 23.1°F-4.9°C 49% 12.8 mph NW20.6 kmh NW 23.3 mph37.5 kmh 30.24 in1024.0 mb 0.00 in0.0 mm 0.00 in0.0 mm 0.00 in0.0 mm
05:00 PM 40.5°F4.7°C 22.8°F-5.1°C 49% 7.7 mph NW12.4 kmh NW 16.5 mph26.6 kmh 30.24 in1024.0 mb 0.00 in0.0 mm 0.00 in0.0 mm 0.00 in0.0 mm
05:15 PM 39.9°F4.4°C 22.8°F-5.1°C 50% 6.8 mph NW10.9 kmh NW 16.5 mph26.6 kmh 30.24 in1024.0 mb 0.00 in0.0 mm 0.00 in0.0 mm 0.00 in0.0 mm
05:34 PM 39.6°F4.2°C 22.4°F-5.3°C 50% 3.8 mph NW6.1 kmh NW 4.7 mph7.6 kmh 30.24 in1024.0 mb 0.00 in0.0 mm 0.00 in0.0 mm 0.00 in0.0 mm
05:36 PM 39.6°F4.2°C 22.4°F-5.3°C 50% 4.5 mph WNW7.2 kmh WNW 6.4 mph10.3 kmh 30.24 in1024.0 mb 0.00 in0.0 mm 0.00 in0.0 mm 0.00 in0.0 mm
05:37 PM 39.4°F4.1°C 22.3°F-5.4°C 50% 4.1 mph NW6.6 kmh NW 6.4 mph10.3 kmh 30.24 in1024.0 mb 0.00 in0.0 mm 0.00 in0.0 mm 0.00 in0.0 mm
05:45 PM 38.7°F3.7°C 22.5°F-5.3°C 52% 3.3 mph W5.3 kmh W 6.8 mph10.9 kmh 30.24 in1024.0 mb 0.00 in0.0 mm 0.00 in0.0 mm 0.00 in0.0 mm
06:00 PM 37.8°F3.2°C 22.1°F-5.5°C 53% 2.1 mph W3.4 kmh W 6.4 mph10.3 kmh 30.24 in1024.0 mb 0.00 in0.0 mm 0.00 in0.0 mm 0.00 in0.0 mm
06:15 PM 36.3°F2.4°C 20.8°F-6.2°C 53% 0.3 mph W0.5 kmh W 5.7 mph9.2 kmh 30.24 in1024.0 mb 0.00 in0.0 mm 0.00 in0.0 mm 0.00 in0.0 mm
06:30 PM 35.1°F1.7°C 20.5°F-6.4°C 55% 1.3 mph W2.1 kmh W 5.4 mph8.7 kmh 30.27 in1025.1 mb 0.00 in0.0 mm 0.00 in0.0 mm 0.00 in0.0 mm
06:45 PM 34.2°F1.2°C 20.5°F-6.4°C 57% 0.4 mph W0.6 kmh W 5.7 mph9.2 kmh 30.27 in1025.1 mb 0.00 in0.0 mm 0.00 in0.0 mm 0.00 in0.0 mm
07:00 PM 33.4°F0.8°C 20.6°F-6.3°C 59% Calm Calm -- 30.27 in1025.1 mb 0.00 in0.0 mm 0.00 in0.0 mm 0.00 in0.0 mm
07:15 PM 33.3°F0.7°C 21.3°F-5.9°C 61% Calm Calm -- 30.27 in1025.1 mb 0.00 in0.0 mm 0.00 in0.0 mm 0.00 in0.0 mm
07:30 PM 32.7°F0.4°C 20.7°F-6.3°C 61% 0.5 mph S0.8 kmh S 5.7 mph9.2 kmh 30.27 in1025.1 mb 0.00 in0.0 mm 0.00 in0.0 mm 0.00 in0.0 mm
07:45 PM 32.2°F0.1°C 20.6°F-6.3°C 62% Calm Calm 1.8 mph2.9 kmh 30.30 in1026.1 mb 0.00 in0.0 mm 0.00 in0.0 mm 0.00 in0.0 mm
08:00 PM 32.0°F0.0°C 20.8°F-6.2°C 63% Calm Calm -- 30.30 in1026.1 mb 0.00 in0.0 mm 0.00 in0.0 mm 0.00 in0.0 mm
08:15 PM 31.8°F-0.1°C 21.0°F-6.1°C 64% 1.1 mph S1.8 kmh S 5.7 mph9.2 kmh 30.27 in1025.1 mb 0.00 in0.0 mm 0.00 in0.0 mm 0.00 in0.0 mm
08:30 PM 32.2°F0.1°C 22.4°F-5.3°C 67% 4.7 mph S7.6 kmh S 9.3 mph15.0 kmh 30.30 in1026.1 mb 0.00 in0.0 mm 0.00 in0.0 mm 0.00 in0.0 mm
08:45 PM 32.9°F0.5°C 24.2°F-4.3°C 70% 4.4 mph W7.1 kmh W 8.6 mph13.8 kmh 30.27 in1025.1 mb 0.00 in0.0 mm 0.00 in0.0 mm 0.00 in0.0 mm
09:00 PM 32.5°F0.3°C 24.2°F-4.3°C 71% 3.3 mph WSW5.3 kmh WSW 8.6 mph13.8 kmh 30.27 in1025.1 mb 0.00 in0.0 mm 0.00 in0.0 mm 0.00 in0.0 mm
09:15 PM 32.4°F0.2°C 24.0°F-4.4°C 71% 3.1 mph W5.0 kmh W 7.9 mph12.7 kmh 30.30 in1026.1 mb 0.00 in0.0 mm 0.00 in0.0 mm 0.00 in0.0 mm
09:30 PM 32.5°F0.3°C 24.8°F-4.0°C 73% 1.5 mph S2.4 kmh S 3.9 mph6.3 kmh 30.30 in1026.1 mb 0.00 in0.0 mm 0.00 in0.0 mm 0.00 in0.0 mm
09:33 PM 32.2°F0.1°C 24.2°F-4.3°C 72% 3.2 mph S5.1 kmh S 3.9 mph6.3 kmh 30.24 in1024.0 mb 0.00 in0.0 mm 0.00 in0.0 mm 0.00 in0.0 mm
09:34 PM 32.4°F0.2°C 24.3°F-4.3°C 72% 3.1 mph S5.0 kmh S 3.9 mph6.3 kmh 30.30 in1026.1 mb 0.00 in0.0 mm 0.00 in0.0 mm 0.00 in0.0 mm
09:35 PM 32.4°F0.2°C 24.3°F-4.3°C 72% 2.0 mph S3.2 kmh S 3.9 mph6.3 kmh 30.30 in1026.1 mb 0.00 in0.0 mm 0.00 in0.0 mm 0.00 in0.0 mm
09:36 PM 32.4°F0.2°C 24.3°F-4.3°C 72% 2.2 mph S3.5 kmh S 3.9 mph6.3 kmh 30.30 in1026.1 mb 0.00 in0.0 mm 0.00 in0.0 mm 0.00 in0.0 mm
09:45 PM 32.9°F0.5°C 25.2°F-3.8°C 73% 1.0 mph S1.6 kmh S 3.9 mph6.3 kmh 30.27 in1025.1 mb 0.00 in0.0 mm 0.00 in0.0 mm 0.00 in0.0 mm
10:00 PM 33.3°F0.7°C 25.9°F-3.4°C 74% 1.8 mph S2.9 kmh S 7.9 mph12.7 kmh 30.30 in1026.1 mb 0.00 in0.0 mm 0.00 in0.0 mm 0.00 in0.0 mm
10:15 PM 34.0°F1.1°C 26.6°F-3.0°C 74% 5.5 mph SW8.9 kmh SW 10.4 mph16.7 kmh 30.30 in1026.1 mb 0.00 in0.0 mm 0.00 in0.0 mm 0.00 in0.0 mm
10:30 PM 35.1°F1.7°C 28.9°F-1.7°C 78% 6.6 mph SSW10.6 kmh SSW 12.2 mph19.6 kmh 30.30 in1026.1 mb 0.00 in0.0 mm 0.00 in0.0 mm 0.00 in0.0 mm
10:45 PM 36.0°F2.2°C 29.8°F-1.2°C 78% 6.7 mph S10.8 kmh S 14.0 mph22.5 kmh 30.27 in1025.1 mb 0.00 in0.0 mm 0.00 in0.0 mm 0.00 in0.0 mm
11:00 PM 35.2°F1.8°C 28.8°F-1.8°C 77% 5.9 mph W9.5 kmh W 10.4 mph16.7 kmh 30.30 in1026.1 mb 0.00 in0.0 mm 0.00 in0.0 mm 0.00 in0.0 mm
11:15 PM 34.9°F1.6°C 28.4°F-2.0°C 77% 3.9 mph W6.3 kmh W 9.7 mph15.6 kmh 30.30 in1026.1 mb 0.00 in0.0 mm 0.00 in0.0 mm 0.00 in0.0 mm
11:30 PM 34.3°F1.3°C 27.9°F-2.3°C 77% 4.3 mph W6.9 kmh W 6.8 mph10.9 kmh 30.30 in1026.1 mb 0.00 in0.0 mm 0.00 in0.0 mm 0.00 in0.0 mm
11:45 PM 34.0°F1.1°C 27.8°F-2.3°C 78% 3.5 mph W5.6 kmh W 6.1 mph9.8 kmh 30.30 in1026.1 mb 0.00 in0.0 mm 0.00 in0.0 mm 0.00 in0.0 mm